createdAt,value
2017-07-26T00:01:46.704Z,35.83
2017-07-26T00:04:17.820Z,36.90
2017-07-26T00:06:48.682Z,34.73
2017-07-26T00:09:19.673Z,38.50
2017-07-26T00:11:50.557Z,38.10
2017-07-26T00:14:21.448Z,40.07
2017-07-26T00:16:52.357Z,36.57
2017-07-26T00:19:23.168Z,38.10
2017-07-26T00:21:54.219Z,41.70
2017-07-26T00:24:25.249Z,37.80
2017-07-26T00:26:56.205Z,35.10
2017-07-26T00:29:27.142Z,35.10
2017-07-26T00:31:58.057Z,38.60
2017-07-26T00:34:29.015Z,40.20
2017-07-26T00:37:00.086Z,40.40
2017-07-26T00:39:31.039Z,35.43
2017-07-26T00:42:04.320Z,37.93
2017-07-26T00:44:37.087Z,40.20
2017-07-26T00:47:08.576Z,43.33
2017-07-26T00:49:39.549Z,39.47
2017-07-26T00:52:10.474Z,38.90
2017-07-26T00:54:41.339Z,42.47
2017-07-26T00:57:12.430Z,37.57
2017-07-26T00:59:43.321Z,37.10
2017-07-26T01:02:14.450Z,37.60
2017-07-26T01:04:45.494Z,38.50
2017-07-26T01:07:16.566Z,35.70
2017-07-26T01:09:47.498Z,36.17
2017-07-26T01:12:18.447Z,35.73
2017-07-26T01:14:49.384Z,35.60
2017-07-26T01:17:20.550Z,36.70
2017-07-26T01:19:51.541Z,37.10
2017-07-26T01:22:22.597Z,34.47
2017-07-26T01:24:53.533Z,36.73
2017-07-26T01:27:24.657Z,30.67
2017-07-26T01:29:55.607Z,29.57
2017-07-26T01:32:26.479Z,36.10
2017-07-26T01:34:57.511Z,31.07
2017-07-26T01:37:28.577Z,33.63
2017-07-26T01:39:59.689Z,33.37
2017-07-26T01:42:31.260Z,31.23
2017-07-26T01:45:06.010Z,29.00
2017-07-26T01:47:41.414Z,43.90
2017-07-26T01:50:12.474Z,32.93
2017-07-26T01:52:43.414Z,39.47
2017-07-26T01:55:14.266Z,40.20
2017-07-26T01:57:45.056Z,38.97
2017-07-26T02:00:15.846Z,35.23
2017-07-26T02:02:46.789Z,44.83
2017-07-26T02:05:17.967Z,39.37
2017-07-26T02:07:49.687Z,45.97
2017-07-26T02:10:20.550Z,40.10
2017-07-26T02:12:52.674Z,46.57
2017-07-26T02:15:26.496Z,45.73
2017-07-26T02:17:58.445Z,37.80
2017-07-26T02:20:31.866Z,48.23
2017-07-26T02:23:03.118Z,53.43
2017-07-26T02:25:33.998Z,52.93
2017-07-26T02:28:05.093Z,53.70
2017-07-26T02:30:35.892Z,56.40
2017-07-26T02:33:06.746Z,55.70
2017-07-26T02:35:37.507Z,54.70
2017-07-26T02:38:08.415Z,54.90
2017-07-26T02:40:39.580Z,54.10
2017-07-26T02:43:15.636Z,52.13
2017-07-26T02:45:48.685Z,58.47
2017-07-26T02:48:23.675Z,51.63
2017-07-26T02:50:56.189Z,48.57
2017-07-26T02:53:31.479Z,53.07
2017-07-26T02:56:06.381Z,43.00
2017-07-26T02:58:38.116Z,44.43
2017-07-26T03:01:12.298Z,38.53
2017-07-26T03:03:43.134Z,38.63
2017-07-26T03:06:14.003Z,35.77
2017-07-26T03:08:44.807Z,39.40
2017-07-26T03:11:15.856Z,35.90
2017-07-26T03:13:46.796Z,28.10
2017-07-26T03:16:17.860Z,25.70
2017-07-26T03:18:48.978Z,24.60
2017-07-26T03:21:20.012Z,26.87
2017-07-26T03:23:50.847Z,25.90
2017-07-26T03:26:21.890Z,25.57
2017-07-26T03:28:52.790Z,24.37
2017-07-26T03:31:24.599Z,25.00
2017-07-26T03:33:55.516Z,26.63
2017-07-26T03:36:26.601Z,27.60
2017-07-26T03:38:57.574Z,25.50
2017-07-26T03:41:29.313Z,25.67
2017-07-26T03:44:00.225Z,26.50
2017-07-26T03:46:30.949Z,25.17
2017-07-26T03:49:02.140Z,29.40
2017-07-26T03:51:33.057Z,26.50
2017-07-26T03:54:03.970Z,23.30
2017-07-26T03:56:34.826Z,26.43
2017-07-26T03:59:05.877Z,25.50
2017-07-26T04:07:03.886Z,24.80
2017-07-26T04:09:34.165Z,24.07
2017-07-26T04:12:04.700Z,31.90
2017-07-26T04:14:34.873Z,30.63
2017-07-26T04:17:05.330Z,31.70
2017-07-26T04:19:36.445Z,28.00
2017-07-26T04:22:06.863Z,29.73
2017-07-26T04:24:37.289Z,26.20
2017-07-26T04:27:07.690Z,30.50
2017-07-26T04:29:38.115Z,28.93
2017-07-26T04:32:08.684Z,30.77
2017-07-26T04:34:39.111Z,28.37
2017-07-26T04:37:09.394Z,30.70
2017-07-26T04:39:39.811Z,27.17
2017-07-26T04:42:10.229Z,35.63
2017-07-26T04:44:40.832Z,36.60
2017-07-26T04:47:11.857Z,36.03
2017-07-26T04:49:42.749Z,39.57
2017-07-26T04:52:17.125Z,39.33
2017-07-26T04:54:49.228Z,40.83
2017-07-26T04:57:20.439Z,40.43
2017-07-26T04:59:51.235Z,40.93
2017-07-26T05:02:21.777Z,42.53
2017-07-26T05:04:52.189Z,35.90
2017-07-26T05:07:22.632Z,36.73
2017-07-26T05:09:52.858Z,36.63
2017-07-26T05:12:23.408Z,36.67
2017-07-26T05:14:53.957Z,32.47
2017-07-26T05:17:29.431Z,30.93
2017-07-26T05:20:03.332Z,28.63
2017-07-26T05:22:35.313Z,25.20
2017-07-26T05:25:07.127Z,21.93
2017-07-26T05:27:41.289Z,21.60
2017-07-26T05:30:51.985Z,23.00
2017-07-26T05:33:22.950Z,18.80
2017-07-26T05:35:53.926Z,18.97
2017-07-26T05:38:25.150Z,20.20
2017-07-26T05:40:56.120Z,17.53
2017-07-26T05:43:33.607Z,18.20
2017-07-26T05:46:10.626Z,17.70
2017-07-26T05:48:47.255Z,19.00
2017-07-26T05:51:23.296Z,19.03
2017-07-26T05:54:01.698Z,17.87
2017-07-26T05:56:32.738Z,20.57
2017-07-26T05:59:04.024Z,19.87
2017-07-26T06:01:35.335Z,20.80
2017-07-26T06:04:06.238Z,16.17
2017-07-26T06:06:37.999Z,15.57
2017-07-26T06:09:09.914Z,17.00
2017-07-26T06:11:40.841Z,15.80
2017-07-26T06:14:11.880Z,16.53
2017-07-26T06:16:42.839Z,16.10
2017-07-26T06:19:13.976Z,18.47
2017-07-26T06:21:44.970Z,16.93
2017-07-26T06:24:16.996Z,18.13
2017-07-26T06:26:48.057Z,16.50
2017-07-26T06:29:19.429Z,16.60
2017-07-26T06:31:57.776Z,18.30
2017-07-26T06:34:34.638Z,16.40
2017-07-26T06:37:12.227Z,17.20
2017-07-26T06:39:47.435Z,18.43
2017-07-26T06:42:18.545Z,15.47
2017-07-26T06:44:49.817Z,18.00
2017-07-26T06:47:20.798Z,19.90
2017-07-26T06:49:51.814Z,19.73
2017-07-26T06:52:23.012Z,19.57
2017-07-26T06:54:54.214Z,16.10
2017-07-26T06:57:25.294Z,17.73
2017-07-26T06:59:57.318Z,20.00
2017-07-26T07:02:28.205Z,19.20
2017-07-26T07:04:59.118Z,17.90
2017-07-26T07:07:31.431Z,18.20
2017-07-26T07:10:02.713Z,18.30
2017-07-26T07:12:35.314Z,18.77
2017-07-26T07:15:10.885Z,16.73
2017-07-26T07:17:47.672Z,17.03
2017-07-26T07:20:23.458Z,16.00
2017-07-26T07:22:57.285Z,17.60
2017-07-26T07:25:36.267Z,17.70
2017-07-26T07:28:09.582Z,20.40
2017-07-26T07:30:40.533Z,19.20
2017-07-26T07:33:11.569Z,19.60
2017-07-26T07:35:47.282Z,19.90
2017-07-26T07:38:19.404Z,19.43
2017-07-26T07:40:50.619Z,14.93
2017-07-26T07:43:28.006Z,18.53
2017-07-26T07:46:04.615Z,19.00
2017-07-26T07:48:40.710Z,17.77
2017-07-26T07:51:17.345Z,16.90
2017-07-26T07:53:48.352Z,14.67
2017-07-26T07:56:20.365Z,17.13
2017-07-26T07:58:52.415Z,15.20
2017-07-26T08:01:23.615Z,13.60
2017-07-26T08:03:58.668Z,14.93
2017-07-26T08:06:29.614Z,14.07
2017-07-26T08:09:00.738Z,14.20
2017-07-26T08:11:32.744Z,14.90
2017-07-26T08:14:03.641Z,16.70
2017-07-26T08:16:35.262Z,15.47
2017-07-26T08:19:06.559Z,15.63
2017-07-26T08:21:37.626Z,18.33
2017-07-26T08:24:14.297Z,16.13
2017-07-26T08:26:51.963Z,17.70
2017-07-26T08:29:35.337Z,16.57
2017-07-26T08:32:11.471Z,18.40
2017-07-26T08:34:44.437Z,18.80
2017-07-26T08:37:16.455Z,17.90
2017-07-26T08:39:47.683Z,19.67
2017-07-26T08:42:18.683Z,19.77
2017-07-26T08:44:58.217Z,20.00
2017-07-26T08:47:35.454Z,20.30
2017-07-26T08:50:11.313Z,19.73
2017-07-26T08:52:50.076Z,18.20
2017-07-26T08:55:21.205Z,21.03
2017-07-26T08:57:52.306Z,26.03
2017-07-26T09:00:23.349Z,23.33
2017-07-26T09:02:54.631Z,24.93
2017-07-26T09:05:25.877Z,23.67
2017-07-26T09:07:57.729Z,24.70
2017-07-26T09:10:28.948Z,24.97
2017-07-26T09:12:59.907Z,24.07
2017-07-26T09:15:30.789Z,23.93
2017-07-26T09:18:01.817Z,23.33
2017-07-26T09:20:33.337Z,22.77
2017-07-26T09:23:04.524Z,22.47
2017-07-26T09:25:35.845Z,24.17
2017-07-26T09:28:07.976Z,21.70
2017-07-26T09:30:43.770Z,23.23
2017-07-26T09:33:20.865Z,22.70
2017-07-26T09:35:52.204Z,25.43
2017-07-26T09:38:28.067Z,23.07
2017-07-26T09:41:01.052Z,22.27
2017-07-26T09:43:32.375Z,28.33
2017-07-26T09:46:03.441Z,25.63
2017-07-26T09:48:34.489Z,24.50
2017-07-26T09:51:05.333Z,22.20
2017-07-26T09:53:41.767Z,19.40
2017-07-26T09:56:17.682Z,21.23
2017-07-26T09:58:54.935Z,23.43
2017-07-26T10:01:32.297Z,22.67
2017-07-26T10:04:08.939Z,27.70
2017-07-26T10:09:27.227Z,24.27
2017-07-26T10:12:04.816Z,21.07
2017-07-26T10:14:36.018Z,24.60
2017-07-26T10:17:07.158Z,22.83
2017-07-26T10:19:38.223Z,21.13
2017-07-26T10:22:10.047Z,22.00
2017-07-26T10:24:41.014Z,23.53
2017-07-26T10:27:12.082Z,23.73
2017-07-26T10:29:44.746Z,23.97
2017-07-26T10:32:15.618Z,23.00
2017-07-26T10:34:46.809Z,22.97
2017-07-26T10:37:17.858Z,23.43
2017-07-26T10:39:49.109Z,23.80
2017-07-26T10:42:20.214Z,24.40
2017-07-26T10:44:52.132Z,24.13
2017-07-26T10:47:23.327Z,22.27
2017-07-26T10:49:55.456Z,22.30
2017-07-26T10:52:26.524Z,21.10
2017-07-26T10:54:57.569Z,21.43
2017-07-26T10:57:36.958Z,20.87
2017-07-26T11:00:18.624Z,21.33
2017-07-26T11:02:53.945Z,20.90
2017-07-26T11:05:37.099Z,18.50
2017-07-26T11:08:08.060Z,19.60
2017-07-26T11:10:39.324Z,20.03
2017-07-26T11:13:17.070Z,17.50
2017-07-26T11:15:51.234Z,16.93
2017-07-26T11:18:27.864Z,18.43
2017-07-26T11:21:09.174Z,15.70
2017-07-26T11:23:46.998Z,15.47
2017-07-26T11:26:25.683Z,15.20
2017-07-26T11:29:00.324Z,13.20
2017-07-26T11:31:37.820Z,14.00
2017-07-26T11:34:11.934Z,13.67
2017-07-26T11:36:46.369Z,16.10
2017-07-26T11:39:17.762Z,18.43
2017-07-26T11:41:49.063Z,17.57
2017-07-26T11:44:20.197Z,17.93
2017-07-26T11:46:51.164Z,16.17
2017-07-26T11:49:22.234Z,18.77
2017-07-26T11:51:53.468Z,19.23
2017-07-26T11:54:24.585Z,18.80
2017-07-26T11:56:55.741Z,18.53
2017-07-26T11:59:26.854Z,19.73
2017-07-26T12:06:24.286Z,21.30
2017-07-26T12:08:55.641Z,18.23
2017-07-26T12:11:26.889Z,19.90
2017-07-26T12:13:57.983Z,17.50
2017-07-26T12:16:35.731Z,17.83
2017-07-26T12:19:16.456Z,16.20
2017-07-26T12:21:53.894Z,14.37
2017-07-26T12:24:38.062Z,14.77
2017-07-26T12:27:16.387Z,14.60
2017-07-26T12:32:45.966Z,13.50
2017-07-26T12:35:18.287Z,16.60
2017-07-26T12:37:49.275Z,17.80
2017-07-26T12:40:20.521Z,15.23
2017-07-26T12:42:57.759Z,13.80
2017-07-26T12:45:29.786Z,15.33
2017-07-26T12:48:02.180Z,15.30
2017-07-26T12:50:33.363Z,12.93
2017-07-26T12:53:05.431Z,11.57
2017-07-26T12:55:37.325Z,11.30
2017-07-26T12:58:11.000Z,11.10
2017-07-26T13:00:42.429Z,13.07
2017-07-26T13:03:13.447Z,9.93
2017-07-26T13:05:44.575Z,13.13
2017-07-26T13:08:15.674Z,12.17
2017-07-26T13:10:47.738Z,8.63
2017-07-26T13:13:20.020Z,10.60
2017-07-26T13:15:51.716Z,11.03
2017-07-26T13:18:22.865Z,12.87
2017-07-26T13:20:53.737Z,14.30
2017-07-26T13:23:24.955Z,15.37
2017-07-26T13:25:56.927Z,13.53
2017-07-26T13:28:28.038Z,11.93
2017-07-26T13:30:59.202Z,13.20
2017-07-26T13:33:30.955Z,13.57
2017-07-26T13:36:02.231Z,12.63
2017-07-26T13:38:41.072Z,12.83
2017-07-26T13:41:13.115Z,14.07
2017-07-26T13:43:50.070Z,13.20
2017-07-26T13:46:23.178Z,12.63
2017-07-26T13:48:59.045Z,14.03
2017-07-26T13:51:35.601Z,13.80
2017-07-26T13:54:13.710Z,13.60
2017-07-26T13:56:47.018Z,13.27
2017-07-26T13:59:18.960Z,14.13
2017-07-26T14:01:50.219Z,14.60
2017-07-26T14:04:21.366Z,15.83
2017-07-26T14:06:52.373Z,15.93
2017-07-26T14:09:23.519Z,14.70
2017-07-26T14:12:03.581Z,16.07
2017-07-26T14:14:41.750Z,15.40
2017-07-26T14:17:20.400Z,14.87
2017-07-26T14:19:51.921Z,15.90
2017-07-26T14:22:28.880Z,16.00
2017-07-26T14:25:06.507Z,15.17
2017-07-26T14:27:43.077Z,12.97
2017-07-26T14:30:20.931Z,14.60
2017-07-26T14:32:52.501Z,15.10
2017-07-26T14:35:24.061Z,14.40
2017-07-26T14:37:55.871Z,15.73
2017-07-26T14:40:26.861Z,16.20
2017-07-26T14:42:58.012Z,13.90
2017-07-26T14:45:30.415Z,12.70
2017-07-26T14:48:09.226Z,14.60
2017-07-26T14:50:50.157Z,13.10
2017-07-26T14:53:26.932Z,13.63
2017-07-26T14:56:01.263Z,14.23
2017-07-26T14:58:31.648Z,14.67
2017-07-26T15:01:02.093Z,15.60
2017-07-26T15:03:39.268Z,14.50
2017-07-26T15:06:10.174Z,15.97
2017-07-26T15:08:50.803Z,15.33
2017-07-26T15:11:21.986Z,16.00
2017-07-26T15:13:52.854Z,17.47
2017-07-26T15:16:23.204Z,16.73
2017-07-26T15:21:35.672Z,16.97
2017-07-26T15:24:07.146Z,17.57
2017-07-26T15:26:42.494Z,17.87
2017-07-26T15:29:18.061Z,17.43
2017-07-26T15:31:51.530Z,16.90
2017-07-26T15:34:30.563Z,15.80
2017-07-26T15:37:02.225Z,16.47
2017-07-26T15:39:33.898Z,15.50
2017-07-26T15:42:08.842Z,15.13
2017-07-26T15:44:45.321Z,16.03
2017-07-26T15:47:18.215Z,15.30
2017-07-26T15:49:56.704Z,15.80
2017-07-26T15:55:14.765Z,16.20
2017-07-26T15:57:50.364Z,16.83
2017-07-26T16:00:27.386Z,17.30
2017-07-26T16:02:58.469Z,17.20
2017-07-26T16:05:33.396Z,17.93
2017-07-26T16:08:04.499Z,19.20
2017-07-26T16:10:34.946Z,16.90
2017-07-26T16:13:05.393Z,15.47
2017-07-26T16:15:36.794Z,16.27
2017-07-26T16:18:07.218Z,14.33
2017-07-26T16:20:37.480Z,17.90
2017-07-26T16:23:08.069Z,15.97
2017-07-26T16:25:39.089Z,17.33
2017-07-26T16:28:11.361Z,18.90
2017-07-26T16:30:42.068Z,19.07
2017-07-26T16:33:23.315Z,16.60
2017-07-26T16:35:55.433Z,19.20
2017-07-26T16:38:29.715Z,16.57
2017-07-26T16:41:02.749Z,16.40
2017-07-26T16:43:33.614Z,14.90
2017-07-26T16:46:04.255Z,16.80
2017-07-26T16:48:35.185Z,16.23
2017-07-26T16:51:05.958Z,15.00
2017-07-26T16:53:36.727Z,16.77
2017-07-26T16:56:07.226Z,15.67
2017-07-26T16:58:37.415Z,16.53
2017-07-26T17:01:08.096Z,16.37
2017-07-26T17:03:38.835Z,18.30
2017-07-26T17:06:10.258Z,17.43
2017-07-26T17:08:40.532Z,16.70
2017-07-26T17:11:13.799Z,16.70
2017-07-26T17:13:50.275Z,15.40
2017-07-26T17:16:26.657Z,14.80
2017-07-26T17:19:05.165Z,15.90
2017-07-26T17:21:44.300Z,15.60
2017-07-26T17:24:15.111Z,14.00
2017-07-26T17:26:45.422Z,15.20
2017-07-26T17:29:16.051Z,15.07
2017-07-26T17:31:46.777Z,13.30
2017-07-26T17:34:17.490Z,15.33
2017-07-26T17:36:48.152Z,14.47
2017-07-26T17:39:18.857Z,13.03
2017-07-26T17:41:49.978Z,14.10
2017-07-26T17:44:20.421Z,14.10
2017-07-26T17:46:52.070Z,18.43
2017-07-26T17:49:30.977Z,15.10
2017-07-26T17:52:13.766Z,18.10
2017-07-26T17:54:53.003Z,16.23
2017-07-26T17:57:26.335Z,15.73
2017-07-26T17:59:57.018Z,16.30
2017-07-26T18:02:27.450Z,16.73
2017-07-26T18:04:59.017Z,15.90
2017-07-26T18:07:29.558Z,15.30
2017-07-26T18:10:00.057Z,14.40
2017-07-26T18:12:30.684Z,16.07
2017-07-26T18:15:01.230Z,16.13
2017-07-26T18:17:35.862Z,15.10
2017-07-26T18:20:30.375Z,15.80
2017-07-26T18:23:13.346Z,16.27
2017-07-26T18:25:55.123Z,13.93
2017-07-26T18:28:39.404Z,15.63
2017-07-26T18:31:29.923Z,13.90
2017-07-26T18:34:10.273Z,15.50
2017-07-26T18:39:33.418Z,15.40
2017-07-26T18:42:12.138Z,14.80
2017-07-26T18:44:49.263Z,16.87
2017-07-26T18:47:25.204Z,15.30
2017-07-26T18:49:59.648Z,14.90
2017-07-26T18:52:30.143Z,16.47
2017-07-26T18:55:01.469Z,17.37
2017-07-26T18:57:34.363Z,17.83
2017-07-26T19:00:05.870Z,17.03
2017-07-26T19:02:36.477Z,17.10
2017-07-26T19:05:07.712Z,18.07
2017-07-26T19:07:38.148Z,18.27
2017-07-26T19:10:10.671Z,18.07
2017-07-26T19:12:41.362Z,18.77
2017-07-26T19:15:12.746Z,17.00
2017-07-26T19:17:47.588Z,16.33
2017-07-26T19:20:24.039Z,16.93
2017-07-26T19:23:03.578Z,17.90
2017-07-26T19:25:41.404Z,17.43
2017-07-26T19:28:16.061Z,18.97
2017-07-26T19:30:51.434Z,16.27
2017-07-26T19:33:28.387Z,14.83
2017-07-26T19:36:02.308Z,18.47
2017-07-26T19:38:32.884Z,19.20
2017-07-26T19:41:03.532Z,19.27
2017-07-26T19:43:38.145Z,16.57
2017-07-26T19:46:15.945Z,18.50
2017-07-26T19:48:53.110Z,18.97
2017-07-26T19:51:28.304Z,19.80
2017-07-26T19:53:59.659Z,19.50
2017-07-26T19:56:30.602Z,19.30
2017-07-26T19:59:06.416Z,20.50
2017-07-26T20:01:41.231Z,20.23
2017-07-26T20:04:18.347Z,20.00
2017-07-26T20:06:56.599Z,20.20
2017-07-26T20:09:28.064Z,20.77
2017-07-26T20:12:07.071Z,20.80
2017-07-26T20:14:44.292Z,21.00
2017-07-26T20:17:20.522Z,20.63
2017-07-26T20:19:57.831Z,21.27
2017-07-26T20:22:28.784Z,19.30
2017-07-26T20:25:00.157Z,21.10
2017-07-26T20:27:30.800Z,20.87
2017-07-26T20:30:01.428Z,18.43
2017-07-26T20:32:31.963Z,16.20
2017-07-26T20:35:02.353Z,16.70
2017-07-26T20:37:37.080Z,17.30
2017-07-26T20:40:13.687Z,14.97
2017-07-26T20:42:49.936Z,15.53
2017-07-26T20:45:26.535Z,17.00
2017-07-26T20:47:57.705Z,16.70
2017-07-26T20:50:28.477Z,14.93
2017-07-26T20:52:59.085Z,13.97
2017-07-26T20:55:29.679Z,13.40
2017-07-26T20:57:59.919Z,14.33
2017-07-26T21:00:30.709Z,14.57
2017-07-26T21:03:01.824Z,13.80
2017-07-26T21:05:32.277Z,14.63
2017-07-26T21:08:02.809Z,12.83
2017-07-26T21:10:41.591Z,14.70
2017-07-26T21:13:16.747Z,15.87
2017-07-26T21:15:51.740Z,14.00
2017-07-26T21:18:26.817Z,13.63
2017-07-26T21:20:57.306Z,15.17
2017-07-26T21:23:27.599Z,13.50
2017-07-26T21:25:58.246Z,14.00
2017-07-26T21:28:28.676Z,15.00
2017-07-26T21:30:59.333Z,14.27
2017-07-26T21:33:30.651Z,12.03
2017-07-26T21:36:00.904Z,13.73
2017-07-26T21:38:31.277Z,13.60
2017-07-26T21:41:01.672Z,11.93
2017-07-26T21:43:35.128Z,13.90
2017-07-26T21:46:09.772Z,13.90
2017-07-26T21:48:46.709Z,12.47
2017-07-26T21:51:21.824Z,12.50
2017-07-26T21:53:56.521Z,14.53
2017-07-26T21:56:34.518Z,14.00
2017-07-26T21:59:06.167Z,14.57
2017-07-26T22:01:37.587Z,13.93
2017-07-26T22:04:08.147Z,13.83
2017-07-26T22:06:38.401Z,13.60
2017-07-26T22:09:08.929Z,15.33
2017-07-26T22:11:39.032Z,15.83
2017-07-26T22:14:10.338Z,14.47
2017-07-26T22:16:40.593Z,15.60
2017-07-26T22:19:19.739Z,16.20
2017-07-26T22:21:57.069Z,15.63
2017-07-26T22:24:34.666Z,14.40
2017-07-26T22:27:10.373Z,18.03
2017-07-26T22:29:41.690Z,15.43
2017-07-26T22:32:12.284Z,16.73
2017-07-26T22:34:45.434Z,14.40
2017-07-26T22:40:11.680Z,14.37
2017-07-26T22:42:51.767Z,15.47
2017-07-26T22:45:29.756Z,14.90
2017-07-26T22:48:00.520Z,19.53
2017-07-26T22:50:31.427Z,16.77
2017-07-26T22:53:02.785Z,14.33
2017-07-26T22:55:38.124Z,15.60
2017-07-26T22:58:13.316Z,15.37
2017-07-26T23:00:51.751Z,15.53
2017-07-26T23:03:27.894Z,15.83
2017-07-26T23:05:58.491Z,15.33
2017-07-26T23:08:35.639Z,16.00
2017-07-26T23:11:15.082Z,17.33
2017-07-26T23:13:52.054Z,19.17
2017-07-26T23:16:27.529Z,16.83
2017-07-26T23:19:06.056Z,19.87
2017-07-26T23:21:46.131Z,16.70
2017-07-26T23:24:19.691Z,19.27
2017-07-26T23:26:51.944Z,16.63
2017-07-26T23:29:22.230Z,18.20
2017-07-26T23:31:52.604Z,19.87
2017-07-26T23:34:23.156Z,17.87
2017-07-26T23:36:53.560Z,18.10
2017-07-26T23:39:24.154Z,20.23
2017-07-26T23:41:54.785Z,19.50
2017-07-26T23:44:25.524Z,20.30
2017-07-26T23:46:55.711Z,20.70
2017-07-26T23:49:27.055Z,21.67
2017-07-26T23:51:57.390Z,23.10
2017-07-26T23:54:28.647Z,23.30
2017-07-26T23:56:59.743Z,24.03
2017-07-26T23:59:36.707Z,21.30
